Details From EGKB - Biggin Hill
To EGMD - Lydd
Flight Number -
Tags generated
Created
Modified
Stats Distance 41 nm / 76 km
Max Altitude 700 ft / 213 m
Waypoints 3
Social Downloads 4
Likes 0
Share VATSIM

Download

Looking for another format? Having issues loading an existing format? Contact us
Advertisement - Login to hide

Notes

Basic altitude profile: - Ascent Rate: 1300ft/min - Ascent Speed: 150kts - Cruise Altitude: 25000ft - Cruise Speed: 175kts - Descent Rate: 1100ft/min - Descent Speed: 110kts Options: - Use NATs: no - Use PACOTS: yes - Use low airways: yes - Use high airways: yes

Route

EGKB LYD EGMD

ID Type Via Altitude Latitude Longitude Leg Dist Tot Dist Heading (true) Name
O EGKB APT - 0 ft / 0 m 51.32671˚ 0.03288˚ - 0 nm - Biggin Hill
LYD VOR - 700 ft / 213 m 50.99972˚ 0.87861˚ 37 nm 37 nm 121° / 122° LYDD VOR-DME
O EGMD APT - 0 ft / 0 m 50.95617˚ 0.93915˚ 3 nm 40 nm 139° / 139° Lydd

Altitude Profile

Advertisement - Login to hide

EGKB

Details ICAO EGKB (BQH)
Name Biggin Hill
Region United Kingdom
Timezone Europe/London (UTC+0.0)
Stats Elevation 598 ft / 182 m (AMSL)
Location 51.326710° 0.032876°
Runways 2
Magnetic Variation 0.373° W

METAR

EGKB 151520Z 32015KT 9999 SCT025 05/02 Q1001

Decode

TAF

Not found

Departure Runways

ID Width Length Bearing (true) Bearing (mag) Surface Threshold Offset Overrun Length
03 148 ft / 45 m 5,915 ft / 1,803 m 25.53° 25.90° Asphalt 804 ft / 245 m 0 ft / 0 m
11 59 ft / 18 m 2,579 ft / 786 m 105.47° 105.84° Asphalt 0 ft / 0 m 0 ft / 0 m
21 148 ft / 45 m 5,915 ft / 1,803 m 205.53° 205.90° Asphalt 0 ft / 0 m 0 ft / 0 m
29 59 ft / 18 m 2,579 ft / 786 m 285.48° 285.85° Asphalt 0 ft / 0 m 0 ft / 0 m

EGMD

Details ICAO EGMD (LYX)
Name Lydd
Region United Kingdom
Timezone Europe/London (UTC+0.0)
Stats Elevation 13 ft / 4 m (AMSL)
Location 50.956171° 0.939147°
Runways 1
Magnetic Variation 0.029° W

METAR

EGMD 151520Z 32015KT 9999 BKN017 05/03 Q0999

Decode

TAF

Not found

Destination Runways

ID Width Length Bearing (true) Bearing (mag) Surface Threshold Offset Overrun Length
03 105 ft / 32 m 4,928 ft / 1,502 m 32.64° 32.67° Asphalt 0 ft / 0 m 0 ft / 0 m
21 105 ft / 32 m 4,928 ft / 1,502 m 212.65° 212.68° Asphalt 112 ft / 34 m 0 ft / 0 m

Approach Navaids

Runway Type Ident Frequency Range Bearing (true) Bearing (mag) Slope Elevation
21 Localiser ILDY 108.15 MHz 18 nm / 33 km 203.16° 203.19° - 13 ft / 4 m (AMSL)
21 Glidescope ILDY 108.15 MHz 10 nm / 19 km 212.65° 212.68° 3.50° 13 ft / 4 m (AMSL)

Popular Alternatives